Startpagina
METAR-TAF:

METAR-TAF

Vliegvelden :

Aéroport de Nîmes-Alés-Camargue-Cévennes

Nîmes, Frankrijk

breedte: 43-45N, lengte: 004-25E, hoogte: 94 m

Actueel weer

Dit bericht is 25 minuten geleden gemaakt, om 20:30 UTC
Wind 6 kt uit het westnoordwesten
Temperatuur 13°C
Vochtigheid 62%
Druk 1027 hPa
Zicht 10 km of meer
geen wolken onder 1500 m en geen cumulonimbus

METAR: LFTW 232030Z AUTO 29006KT CAVOK 13/06 Q1027

Tijdstip: 21:55 (20:55 UTC)

Verwachting

Dit bericht is 6 uur en het 55 minuten geleden gemaakt, om 14:00 UTC
Verwachting geldig van 23 om 15 UTC tot 24 om 15 UTC
Wind 10 kt uit het westzuidwesten
Zicht 10 km of meer
geen wolken onder 1500 m en geen cumulonimbus
Wijzigt naar
van 23 om 18 UTC tot 23 om 21 UTC
Wind 10 kt uit het westnoordwesten

TAF: LFTW 231400Z 2315/2415 24010KT CAVOK BECMG 2318/2321 30010KT

Waarnemingen en weersverwachtingen van meer dan 4000 vliegvelden (METAR en TAF).

De beschikbare stations zijn de gele en rode punten op de kaart.

Ga met uw muis naar het station om de naam te zien.

Klik dan om waarnemingen en weersverwachtingen te zien.

kaart wijzigen: klik op de groene knoppen met een zwart kruis om in te zoomen, op de groene knop met een streepje om uit te zoomen of op de groene pijlen voor aangrenzende kaarten.


METAR-TAF: